sensor_id;sensor_type;location;lat;lon;timestamp;P1;durP1;ratioP1;P2;durP2;ratioP2
71150;SDS011;59071;42.138;24.768;2024-02-26T00:01:07;36.47;;;20.80;;
71150;SDS011;59071;42.138;24.768;2024-02-26T00:03:32;36.33;;;21.02;;
71150;SDS011;59071;42.138;24.768;2024-02-26T00:06:00;38.05;;;20.60;;
71150;SDS011;59071;42.138;24.768;2024-02-26T00:08:26;39.25;;;22.00;;
71150;SDS011;59071;42.138;24.768;2024-02-26T00:10:52;33.92;;;20.95;;
71150;SDS011;59071;42.138;24.768;2024-02-26T00:13:17;35.47;;;21.48;;
71150;SDS011;59071;42.138;24.768;2024-02-26T00:15:42;39.47;;;22.40;;
71150;SDS011;59071;42.138;24.768;2024-02-26T00:18:08;39.90;;;21.80;;
71150;SDS011;59071;42.138;24.768;2024-02-26T00:20:33;41.25;;;22.48;;
71150;SDS011;59071;42.138;24.768;2024-02-26T00:22:59;36.30;;;20.83;;
71150;SDS011;59071;42.138;24.768;2024-02-26T00:25:24;39.38;;;22.05;;
71150;SDS011;59071;42.138;24.768;2024-02-26T00:27:49;31.80;;;19.13;;
71150;SDS011;59071;42.138;24.768;2024-02-26T00:30:15;33.17;;;19.55;;
71150;SDS011;59071;42.138;24.768;2024-02-26T00:32:40;33.53;;;19.88;;
71150;SDS011;59071;42.138;24.768;2024-02-26T00:35:06;34.80;;;19.85;;
71150;SDS011;59071;42.138;24.768;2024-02-26T00:37:31;37.78;;;20.42;;
71150;SDS011;59071;42.138;24.768;2024-02-26T00:39:57;36.63;;;20.90;;
71150;SDS011;59071;42.138;24.768;2024-02-26T00:42:22;32.67;;;20.55;;
71150;SDS011;59071;42.138;24.768;2024-02-26T00:44:48;37.53;;;21.17;;
71150;SDS011;59071;42.138;24.768;2024-02-26T00:47:13;36.42;;;20.75;;
71150;SDS011;59071;42.138;24.768;2024-02-26T00:49:39;32.55;;;18.50;;
71150;SDS011;59071;42.138;24.768;2024-02-26T00:52:04;35.75;;;20.13;;
71150;SDS011;59071;42.138;24.768;2024-02-26T00:54:29;41.03;;;24.33;;
71150;SDS011;59071;42.138;24.768;2024-02-26T00:56:55;41.83;;;24.08;;
71150;SDS011;59071;42.138;24.768;2024-02-26T00:59:20;42.17;;;21.92;;
71150;SDS011;59071;42.138;24.768;2024-02-26T01:01:46;31.05;;;18.58;;
71150;SDS011;59071;42.138;24.768;2024-02-26T01:04:11;31.33;;;18.63;;
71150;SDS011;59071;42.138;24.768;2024-02-26T01:06:37;29.35;;;17.33;;
71150;SDS011;59071;42.138;24.768;2024-02-26T01:09:02;25.85;;;15.90;;
71150;SDS011;59071;42.138;24.768;2024-02-26T01:11:28;25.15;;;15.75;;
71150;SDS011;59071;42.138;24.768;2024-02-26T01:13:54;23.35;;;14.77;;
71150;SDS011;59071;42.138;24.768;2024-02-26T01:16:21;28.08;;;14.82;;
71150;SDS011;59071;42.138;24.768;2024-02-26T01:18:48;25.38;;;16.70;;
71150;SDS011;59071;42.138;24.768;2024-02-26T01:21:13;34.25;;;18.60;;
71150;SDS011;59071;42.138;24.768;2024-02-26T01:23:38;31.67;;;18.60;;
71150;SDS011;59071;42.138;24.768;2024-02-26T01:26:04;30.83;;;17.77;;
71150;SDS011;59071;42.138;24.768;2024-02-26T01:28:29;31.60;;;19.40;;
71150;SDS011;59071;42.138;24.768;2024-02-26T01:30:55;31.75;;;19.10;;
71150;SDS011;59071;42.138;24.768;2024-02-26T01:33:20;34.20;;;19.77;;
71150;SDS011;59071;42.138;24.768;2024-02-26T01:35:46;34.10;;;20.20;;
71150;SDS011;59071;42.138;24.768;2024-02-26T01:38:11;35.83;;;20.08;;
71150;SDS011;59071;42.138;24.768;2024-02-26T01:40:37;33.75;;;21.60;;
71150;SDS011;59071;42.138;24.768;2024-02-26T01:43:02;35.65;;;19.85;;
71150;SDS011;59071;42.138;24.768;2024-02-26T01:45:28;35.50;;;20.65;;
71150;SDS011;59071;42.138;24.768;2024-02-26T01:47:53;39.35;;;21.02;;
71150;SDS011;59071;42.138;24.768;2024-02-26T01:50:19;36.60;;;20.42;;
71150;SDS011;59071;42.138;24.768;2024-02-26T01:52:47;36.05;;;20.23;;
71150;SDS011;59071;42.138;24.768;2024-02-26T01:55:14;32.72;;;19.77;;
71150;SDS011;59071;42.138;24.768;2024-02-26T01:57:40;34.10;;;20.33;;
71150;SDS011;59071;42.138;24.768;2024-02-26T02:00:08;35.43;;;20.90;;
71150;SDS011;59071;42.138;24.768;2024-02-26T02:02:35;33.75;;;20.02;;
71150;SDS011;59071;42.138;24.768;2024-02-26T02:05:01;34.22;;;19.83;;
71150;SDS011;59071;42.138;24.768;2024-02-26T02:07:27;30.23;;;19.30;;
71150;SDS011;59071;42.138;24.768;2024-02-26T02:09:53;32.22;;;19.13;;
71150;SDS011;59071;42.138;24.768;2024-02-26T02:12:19;31.55;;;19.25;;
71150;SDS011;59071;42.138;24.768;2024-02-26T02:14:44;34.00;;;18.00;;
71150;SDS011;59071;42.138;24.768;2024-02-26T02:17:10;31.15;;;18.13;;
71150;SDS011;59071;42.138;24.768;2024-02-26T02:19:35;35.28;;;20.98;;
71150;SDS011;59071;42.138;24.768;2024-02-26T02:22:01;32.60;;;20.08;;
71150;SDS011;59071;42.138;24.768;2024-02-26T02:24:26;30.35;;;20.45;;
71150;SDS011;59071;42.138;24.768;2024-02-26T02:26:51;33.58;;;20.52;;
71150;SDS011;59071;42.138;24.768;2024-02-26T02:29:17;35.45;;;20.42;;
71150;SDS011;59071;42.138;24.768;2024-02-26T02:31:42;32.67;;;19.85;;
71150;SDS011;59071;42.138;24.768;2024-02-26T02:34:08;28.10;;;16.55;;
71150;SDS011;59071;42.138;24.768;2024-02-26T02:36:34;28.92;;;16.75;;
71150;SDS011;59071;42.138;24.768;2024-02-26T02:38:59;30.88;;;17.30;;
71150;SDS011;59071;42.138;24.768;2024-02-26T02:41:25;29.52;;;16.83;;
71150;SDS011;59071;42.138;24.768;2024-02-26T02:43:52;25.58;;;15.85;;
71150;SDS011;59071;42.138;24.768;2024-02-26T02:46:17;30.38;;;16.70;;
71150;SDS011;59071;42.138;24.768;2024-02-26T02:48:43;28.90;;;16.55;;
71150;SDS011;59071;42.138;24.768;2024-02-26T02:51:09;30.20;;;16.98;;
71150;SDS011;59071;42.138;24.768;2024-02-26T02:53:35;27.20;;;16.10;;
71150;SDS011;59071;42.138;24.768;2024-02-26T02:56:00;27.05;;;17.20;;
71150;SDS011;59071;42.138;24.768;2024-02-26T02:58:25;28.40;;;16.63;;
71150;SDS011;59071;42.138;24.768;2024-02-26T03:00:51;30.00;;;17.45;;
71150;SDS011;59071;42.138;24.768;2024-02-26T03:03:16;30.05;;;18.00;;
71150;SDS011;59071;42.138;24.768;2024-02-26T03:05:41;29.38;;;18.88;;
71150;SDS011;59071;42.138;24.768;2024-02-26T03:08:07;37.97;;;20.85;;
71150;SDS011;59071;42.138;24.768;2024-02-26T03:10:32;37.67;;;23.08;;
71150;SDS011;59071;42.138;24.768;2024-02-26T03:12:57;38.10;;;22.08;;
71150;SDS011;59071;42.138;24.768;2024-02-26T03:15:23;41.80;;;23.42;;
71150;SDS011;59071;42.138;24.768;2024-02-26T03:17:48;40.88;;;23.77;;
71150;SDS011;59071;42.138;24.768;2024-02-26T03:20:14;43.83;;;25.42;;
71150;SDS011;59071;42.138;24.768;2024-02-26T03:22:39;44.42;;;25.13;;
71150;SDS011;59071;42.138;24.768;2024-02-26T03:25:05;43.15;;;24.35;;
71150;SDS011;59071;42.138;24.768;2024-02-26T03:27:31;43.83;;;26.08;;
71150;SDS011;59071;42.138;24.768;2024-02-26T03:29:56;44.67;;;25.27;;
71150;SDS011;59071;42.138;24.768;2024-02-26T03:32:22;41.70;;;24.70;;
71150;SDS011;59071;42.138;24.768;2024-02-26T03:34:47;41.28;;;25.30;;
71150;SDS011;59071;42.138;24.768;2024-02-26T03:37:13;41.97;;;25.60;;
71150;SDS011;59071;42.138;24.768;2024-02-26T03:39:38;38.83;;;24.60;;
71150;SDS011;59071;42.138;24.768;2024-02-26T03:42:04;40.17;;;24.42;;
71150;SDS011;59071;42.138;24.768;2024-02-26T03:44:29;44.78;;;23.63;;
71150;SDS011;59071;42.138;24.768;2024-02-26T03:46:54;42.47;;;22.73;;
71150;SDS011;59071;42.138;24.768;2024-02-26T03:49:20;42.20;;;24.65;;
71150;SDS011;59071;42.138;24.768;2024-02-26T03:51:46;43.67;;;24.92;;
71150;SDS011;59071;42.138;24.768;2024-02-26T03:54:12;40.00;;;22.83;;
71150;SDS011;59071;42.138;24.768;2024-02-26T03:56:37;39.20;;;23.25;;
71150;SDS011;59071;42.138;24.768;2024-02-26T03:59:03;43.63;;;24.10;;
71150;SDS011;59071;42.138;24.768;2024-02-26T04:01:28;40.58;;;23.52;;
71150;SDS011;59071;42.138;24.768;2024-02-26T04:03:54;40.03;;;23.63;;
71150;SDS011;59071;42.138;24.768;2024-02-26T04:06:19;44.00;;;24.23;;
71150;SDS011;59071;42.138;24.768;2024-02-26T04:08:46;47.55;;;24.55;;
71150;SDS011;59071;42.138;24.768;2024-02-26T04:11:12;38.03;;;21.35;;
71150;SDS011;59071;42.138;24.768;2024-02-26T04:13:37;38.45;;;21.58;;
71150;SDS011;59071;42.138;24.768;2024-02-26T04:16:05;34.35;;;20.70;;
71150;SDS011;59071;42.138;24.768;2024-02-26T04:18:31;32.17;;;18.63;;
71150;SDS011;59071;42.138;24.768;2024-02-26T04:20:57;35.55;;;18.13;;
71150;SDS011;59071;42.138;24.768;2024-02-26T04:23:23;30.80;;;16.25;;
71150;SDS011;59071;42.138;24.768;2024-02-26T04:25:49;27.50;;;17.10;;
71150;SDS011;59071;42.138;24.768;2024-02-26T04:28:14;26.70;;;16.30;;
71150;SDS011;59071;42.138;24.768;2024-02-26T04:30:39;25.05;;;15.52;;
71150;SDS011;59071;42.138;24.768;2024-02-26T04:33:05;22.25;;;13.60;;
71150;SDS011;59071;42.138;24.768;2024-02-26T04:35:31;25.27;;;15.05;;
71150;SDS011;59071;42.138;24.768;2024-02-26T04:37:56;25.10;;;15.35;;
71150;SDS011;59071;42.138;24.768;2024-02-26T04:40:22;21.35;;;13.68;;
71150;SDS011;59071;42.138;24.768;2024-02-26T04:42:48;22.80;;;13.40;;
71150;SDS011;59071;42.138;24.768;2024-02-26T04:45:14;23.27;;;12.60;;
71150;SDS011;59071;42.138;24.768;2024-02-26T04:47:39;19.90;;;11.70;;
71150;SDS011;59071;42.138;24.768;2024-02-26T04:50:05;18.92;;;11.65;;
71150;SDS011;59071;42.138;24.768;2024-02-26T04:52:30;22.65;;;12.90;;
71150;SDS011;59071;42.138;24.768;2024-02-26T04:54:56;20.17;;;11.82;;
71150;SDS011;59071;42.138;24.768;2024-02-26T04:57:21;19.38;;;12.18;;
71150;SDS011;59071;42.138;24.768;2024-02-26T04:59:47;21.38;;;12.00;;
71150;SDS011;59071;42.138;24.768;2024-02-26T05:02:12;22.90;;;12.10;;
71150;SDS011;59071;42.138;24.768;2024-02-26T05:04:38;22.10;;;11.88;;
71150;SDS011;59071;42.138;24.768;2024-02-26T05:07:03;19.30;;;11.43;;
71150;SDS011;59071;42.138;24.768;2024-02-26T05:09:29;21.83;;;11.80;;
71150;SDS011;59071;42.138;24.768;2024-02-26T05:11:54;18.95;;;11.18;;
71150;SDS011;59071;42.138;24.768;2024-02-26T05:14:20;24.48;;;11.15;;
71150;SDS011;59071;42.138;24.768;2024-02-26T05:16:46;16.77;;;11.07;;
71150;SDS011;59071;42.138;24.768;2024-02-26T05:19:12;18.35;;;10.65;;
71150;SDS011;59071;42.138;24.768;2024-02-26T05:21:37;19.98;;;10.20;;
71150;SDS011;59071;42.138;24.768;2024-02-26T05:24:03;30.42;;;17.50;;
71150;SDS011;59071;42.138;24.768;2024-02-26T05:26:28;21.83;;;12.10;;
71150;SDS011;59071;42.138;24.768;2024-02-26T05:28:53;27.77;;;16.02;;
71150;SDS011;59071;42.138;24.768;2024-02-26T05:31:24;15.13;;;9.75;;
71150;SDS011;59071;42.138;24.768;2024-02-26T05:33:50;15.32;;;9.52;;
71150;SDS011;59071;42.138;24.768;2024-02-26T05:36:19;14.07;;;9.00;;
71150;SDS011;59071;42.138;24.768;2024-02-26T05:38:50;14.85;;;9.25;;
71150;SDS011;59071;42.138;24.768;2024-02-26T05:41:16;22.25;;;9.05;;
71150;SDS011;59071;42.138;24.768;2024-02-26T05:43:42;31.58;;;10.82;;
71150;SDS011;59071;42.138;24.768;2024-02-26T05:46:07;23.48;;;9.52;;
71150;SDS011;59071;42.138;24.768;2024-02-26T05:48:33;22.77;;;9.90;;
71150;SDS011;59071;42.138;24.768;2024-02-26T05:50:58;27.45;;;10.40;;
71150;SDS011;59071;42.138;24.768;2024-02-26T05:53:24;22.33;;;10.45;;
71150;SDS011;59071;42.138;24.768;2024-02-26T05:55:49;18.17;;;9.90;;
71150;SDS011;59071;42.138;24.768;2024-02-26T05:58:14;22.10;;;10.18;;
71150;SDS011;59071;42.138;24.768;2024-02-26T06:00:40;19.35;;;10.18;;
71150;SDS011;59071;42.138;24.768;2024-02-26T06:03:05;18.38;;;10.00;;
71150;SDS011;59071;42.138;24.768;2024-02-26T06:05:31;19.17;;;9.95;;
71150;SDS011;59071;42.138;24.768;2024-02-26T06:07:56;17.55;;;10.07;;
71150;SDS011;59071;42.138;24.768;2024-02-26T06:10:21;16.17;;;10.70;;
71150;SDS011;59071;42.138;24.768;2024-02-26T06:12:47;21.73;;;11.13;;
71150;SDS011;59071;42.138;24.768;2024-02-26T06:15:13;19.42;;;10.73;;
71150;SDS011;59071;42.138;24.768;2024-02-26T06:17:38;18.88;;;9.95;;
71150;SDS011;59071;42.138;24.768;2024-02-26T06:20:03;17.23;;;10.20;;
71150;SDS011;59071;42.138;24.768;2024-02-26T06:22:31;17.95;;;11.52;;
71150;SDS011;59071;42.138;24.768;2024-02-26T06:24:57;16.73;;;10.68;;
71150;SDS011;59071;42.138;24.768;2024-02-26T06:27:22;28.77;;;14.13;;
71150;SDS011;59071;42.138;24.768;2024-02-26T06:29:48;18.20;;;11.65;;
71150;SDS011;59071;42.138;24.768;2024-02-26T06:32:14;17.35;;;10.98;;
71150;SDS011;59071;42.138;24.768;2024-02-26T06:34:39;18.80;;;10.65;;
71150;SDS011;59071;42.138;24.768;2024-02-26T06:37:06;16.75;;;10.93;;
71150;SDS011;59071;42.138;24.768;2024-02-26T06:39:32;22.73;;;10.90;;
71150;SDS011;59071;42.138;24.768;2024-02-26T06:41:58;21.70;;;11.07;;
71150;SDS011;59071;42.138;24.768;2024-02-26T06:44:26;20.02;;;11.50;;
71150;SDS011;59071;42.138;24.768;2024-02-26T06:46:56;20.42;;;11.75;;
71150;SDS011;59071;42.138;24.768;2024-02-26T06:49:22;20.23;;;11.85;;
71150;SDS011;59071;42.138;24.768;2024-02-26T06:51:49;23.15;;;11.95;;
71150;SDS011;59071;42.138;24.768;2024-02-26T06:54:14;26.17;;;11.57;;
71150;SDS011;59071;42.138;24.768;2024-02-26T06:56:40;21.17;;;12.05;;
71150;SDS011;59071;42.138;24.768;2024-02-26T06:59:05;20.90;;;12.30;;
71150;SDS011;59071;42.138;24.768;2024-02-26T07:01:30;27.92;;;14.85;;
71150;SDS011;59071;42.138;24.768;2024-02-26T07:03:56;27.65;;;12.80;;
71150;SDS011;59071;42.138;24.768;2024-02-26T07:06:21;19.27;;;12.05;;
71150;SDS011;59071;42.138;24.768;2024-02-26T07:08:46;23.80;;;11.73;;
71150;SDS011;59071;42.138;24.768;2024-02-26T07:11:12;18.00;;;12.02;;
71150;SDS011;59071;42.138;24.768;2024-02-26T07:13:37;21.73;;;12.20;;
71150;SDS011;59071;42.138;24.768;2024-02-26T07:16:03;18.52;;;12.50;;
71150;SDS011;59071;42.138;24.768;2024-02-26T07:18:32;26.38;;;12.35;;
71150;SDS011;59071;42.138;24.768;2024-02-26T07:20:58;20.67;;;12.10;;
71150;SDS011;59071;42.138;24.768;2024-02-26T07:23:26;27.17;;;12.53;;
71150;SDS011;59071;42.138;24.768;2024-02-26T07:25:52;23.63;;;12.20;;
71150;SDS011;59071;42.138;24.768;2024-02-26T07:28:18;25.25;;;12.25;;
71150;SDS011;59071;42.138;24.768;2024-02-26T07:30:43;21.70;;;12.98;;
71150;SDS011;59071;42.138;24.768;2024-02-26T07:33:08;21.60;;;12.00;;
71150;SDS011;59071;42.138;24.768;2024-02-26T07:35:34;23.73;;;12.85;;
71150;SDS011;59071;42.138;24.768;2024-02-26T07:38:01;25.02;;;12.80;;
71150;SDS011;59071;42.138;24.768;2024-02-26T07:40:26;22.48;;;13.05;;
71150;SDS011;59071;42.138;24.768;2024-02-26T07:42:52;24.38;;;12.68;;
71150;SDS011;59071;42.138;24.768;2024-02-26T07:45:17;27.88;;;12.80;;
71150;SDS011;59071;42.138;24.768;2024-02-26T07:47:45;25.33;;;13.35;;
71150;SDS011;59071;42.138;24.768;2024-02-26T07:50:11;31.77;;;14.30;;
71150;SDS011;59071;42.138;24.768;2024-02-26T07:52:37;24.65;;;13.27;;
71150;SDS011;59071;42.138;24.768;2024-02-26T07:55:02;25.67;;;13.63;;
71150;SDS011;59071;42.138;24.768;2024-02-26T07:57:28;32.25;;;15.75;;
71150;SDS011;59071;42.138;24.768;2024-02-26T07:59:53;22.55;;;13.90;;
71150;SDS011;59071;42.138;24.768;2024-02-26T08:02:19;23.23;;;13.27;;
71150;SDS011;59071;42.138;24.768;2024-02-26T08:04:44;29.75;;;15.63;;
71150;SDS011;59071;42.138;24.768;2024-02-26T08:07:10;36.08;;;19.75;;
71150;SDS011;59071;42.138;24.768;2024-02-26T08:09:35;31.02;;;19.45;;
71150;SDS011;59071;42.138;24.768;2024-02-26T08:12:00;32.25;;;21.27;;
71150;SDS011;59071;42.138;24.768;2024-02-26T08:14:26;40.90;;;21.75;;
71150;SDS011;59071;42.138;24.768;2024-02-26T08:16:51;38.83;;;20.67;;
71150;SDS011;59071;42.138;24.768;2024-02-26T08:19:16;37.92;;;19.52;;
71150;SDS011;59071;42.138;24.768;2024-02-26T08:21:42;30.88;;;18.45;;
71150;SDS011;59071;42.138;24.768;2024-02-26T08:24:08;27.95;;;17.63;;
71150;SDS011;59071;42.138;24.768;2024-02-26T08:26:33;28.50;;;15.98;;
71150;SDS011;59071;42.138;24.768;2024-02-26T08:28:59;32.13;;;16.20;;
71150;SDS011;59071;42.138;24.768;2024-02-26T08:31:24;34.90;;;15.60;;
71150;SDS011;59071;42.138;24.768;2024-02-26T08:33:50;27.08;;;14.57;;
71150;SDS011;59071;42.138;24.768;2024-02-26T08:36:15;28.17;;;14.88;;
71150;SDS011;59071;42.138;24.768;2024-02-26T08:38:41;31.23;;;14.77;;
71150;SDS011;59071;42.138;24.768;2024-02-26T08:41:06;22.20;;;14.13;;
71150;SDS011;59071;42.138;24.768;2024-02-26T08:43:31;27.55;;;14.00;;
71150;SDS011;59071;42.138;24.768;2024-02-26T08:45:57;24.50;;;13.85;;
71150;SDS011;59071;42.138;24.768;2024-02-26T08:48:22;25.83;;;14.00;;
71150;SDS011;59071;42.138;24.768;2024-02-26T08:50:48;23.77;;;14.13;;
71150;SDS011;59071;42.138;24.768;2024-02-26T08:53:13;22.70;;;14.30;;
71150;SDS011;59071;42.138;24.768;2024-02-26T08:55:39;25.77;;;15.20;;
71150;SDS011;59071;42.138;24.768;2024-02-26T08:58:04;24.10;;;14.45;;
71150;SDS011;59071;42.138;24.768;2024-02-26T09:00:29;25.10;;;14.82;;
71150;SDS011;59071;42.138;24.768;2024-02-26T09:02:56;28.08;;;14.70;;
71150;SDS011;59071;42.138;24.768;2024-02-26T09:05:21;26.35;;;14.75;;
71150;SDS011;59071;42.138;24.768;2024-02-26T09:07:46;28.70;;;15.00;;
71150;SDS011;59071;42.138;24.768;2024-02-26T09:10:12;28.15;;;14.88;;
71150;SDS011;59071;42.138;24.768;2024-02-26T09:12:37;27.83;;;15.40;;
71150;SDS011;59071;42.138;24.768;2024-02-26T09:15:05;22.42;;;14.10;;
71150;SDS011;59071;42.138;24.768;2024-02-26T09:17:31;21.55;;;13.82;;
71150;SDS011;59071;42.138;24.768;2024-02-26T09:19:56;23.67;;;14.73;;
71150;SDS011;59071;42.138;24.768;2024-02-26T09:22:22;27.75;;;15.40;;
71150;SDS011;59071;42.138;24.768;2024-02-26T09:24:47;35.08;;;18.65;;
71150;SDS011;59071;42.138;24.768;2024-02-26T09:27:15;51.30;;;26.92;;
71150;SDS011;59071;42.138;24.768;2024-02-26T09:29:40;32.08;;;16.55;;
71150;SDS011;59071;42.138;24.768;2024-02-26T09:32:06;20.83;;;13.00;;
71150;SDS011;59071;42.138;24.768;2024-02-26T09:34:31;24.77;;;13.20;;
71150;SDS011;59071;42.138;24.768;2024-02-26T09:36:58;29.58;;;16.05;;
71150;SDS011;59071;42.138;24.768;2024-02-26T09:39:23;24.35;;;15.02;;
71150;SDS011;59071;42.138;24.768;2024-02-26T09:41:49;30.77;;;16.60;;
71150;SDS011;59071;42.138;24.768;2024-02-26T09:44:15;22.10;;;12.77;;
71150;SDS011;59071;42.138;24.768;2024-02-26T09:46:47;25.05;;;11.80;;
71150;SDS011;59071;42.138;24.768;2024-02-26T09:49:16;21.30;;;12.57;;
71150;SDS011;59071;42.138;24.768;2024-02-26T09:51:43;24.45;;;14.50;;
71150;SDS011;59071;42.138;24.768;2024-02-26T09:54:09;25.85;;;14.65;;
71150;SDS011;59071;42.138;24.768;2024-02-26T09:56:36;26.88;;;15.23;;
71150;SDS011;59071;42.138;24.768;2024-02-26T09:59:06;25.20;;;15.50;;
71150;SDS011;59071;42.138;24.768;2024-02-26T10:01:34;22.83;;;14.73;;
71150;SDS011;59071;42.138;24.768;2024-02-26T10:04:00;23.77;;;14.10;;
71150;SDS011;59071;42.138;24.768;2024-02-26T10:06:26;23.60;;;13.52;;
71150;SDS011;59071;42.138;24.768;2024-02-26T10:08:53;23.88;;;13.80;;
71150;SDS011;59071;42.138;24.768;2024-02-26T10:11:19;20.30;;;14.07;;
71150;SDS011;59071;42.138;24.768;2024-02-26T10:13:45;21.90;;;13.43;;
71150;SDS011;59071;42.138;24.768;2024-02-26T10:16:11;34.08;;;13.30;;
71150;SDS011;59071;42.138;24.768;2024-02-26T10:18:46;22.90;;;13.15;;
71150;SDS011;59071;42.138;24.768;2024-02-26T10:21:18;20.98;;;11.75;;
71150;SDS011;59071;42.138;24.768;2024-02-26T10:23:44;20.15;;;11.75;;
71150;SDS011;59071;42.138;24.768;2024-02-26T10:26:11;21.45;;;11.57;;
71150;SDS011;59071;42.138;24.768;2024-02-26T10:28:37;18.30;;;12.13;;
71150;SDS011;59071;42.138;24.768;2024-02-26T10:31:04;19.30;;;11.50;;
71150;SDS011;59071;42.138;24.768;2024-02-26T10:33:31;20.60;;;12.02;;
71150;SDS011;59071;42.138;24.768;2024-02-26T10:36:00;18.17;;;12.05;;
71150;SDS011;59071;42.138;24.768;2024-02-26T10:38:26;19.55;;;11.57;;
71150;SDS011;59071;42.138;24.768;2024-02-26T10:40:51;19.38;;;11.68;;
71150;SDS011;59071;42.138;24.768;2024-02-26T10:43:17;24.33;;;12.20;;
71150;SDS011;59071;42.138;24.768;2024-02-26T10:45:43;17.98;;;12.52;;
71150;SDS011;59071;42.138;24.768;2024-02-26T10:48:09;19.70;;;11.23;;
71150;SDS011;59071;42.138;24.768;2024-02-26T10:50:36;21.60;;;12.80;;
71150;SDS011;59071;42.138;24.768;2024-02-26T10:53:01;21.33;;;12.57;;
71150;SDS011;59071;42.138;24.768;2024-02-26T10:55:29;23.50;;;11.43;;
71150;SDS011;59071;42.138;24.768;2024-02-26T10:57:58;25.85;;;12.27;;
71150;SDS011;59071;42.138;24.768;2024-02-26T11:00:24;19.63;;;11.07;;
71150;SDS011;59071;42.138;24.768;2024-02-26T11:02:49;24.08;;;10.73;;
71150;SDS011;59071;42.138;24.768;2024-02-26T11:05:16;16.58;;;10.40;;
71150;SDS011;59071;42.138;24.768;2024-02-26T11:07:42;16.55;;;10.23;;
71150;SDS011;59071;42.138;24.768;2024-02-26T11:10:09;15.05;;;10.40;;
71150;SDS011;59071;42.138;24.768;2024-02-26T11:12:36;18.90;;;10.85;;
71150;SDS011;59071;42.138;24.768;2024-02-26T11:15:04;16.10;;;10.10;;
71150;SDS011;59071;42.138;24.768;2024-02-26T11:17:30;17.80;;;9.48;;
71150;SDS011;59071;42.138;24.768;2024-02-26T11:19:58;17.05;;;9.63;;
71150;SDS011;59071;42.138;24.768;2024-02-26T11:22:24;17.88;;;11.02;;
71150;SDS011;59071;42.138;24.768;2024-02-26T11:24:54;17.15;;;10.13;;
71150;SDS011;59071;42.138;24.768;2024-02-26T11:27:29;14.43;;;10.43;;
71150;SDS011;59071;42.138;24.768;2024-02-26T11:29:57;15.32;;;10.40;;
71150;SDS011;59071;42.138;24.768;2024-02-26T11:32:26;15.13;;;9.90;;
71150;SDS011;59071;42.138;24.768;2024-02-26T11:34:53;16.85;;;10.93;;
71150;SDS011;59071;42.138;24.768;2024-02-26T11:37:19;17.88;;;10.45;;
71150;SDS011;59071;42.138;24.768;2024-02-26T11:39:45;16.58;;;9.95;;
71150;SDS011;59071;42.138;24.768;2024-02-26T11:42:13;21.70;;;11.27;;
71150;SDS011;59071;42.138;24.768;2024-02-26T11:44:40;19.38;;;10.63;;
71150;SDS011;59071;42.138;24.768;2024-02-26T11:47:10;17.80;;;11.60;;
71150;SDS011;59071;42.138;24.768;2024-02-26T11:49:42;17.85;;;11.80;;
71150;SDS011;59071;42.138;24.768;2024-02-26T11:52:08;20.40;;;12.07;;
71150;SDS011;59071;42.138;24.768;2024-02-26T11:59:48;16.42;;;11.27;;
71150;SDS011;59071;42.138;24.768;2024-02-26T12:05:37;16.52;;;11.32;;
71150;SDS011;59071;42.138;24.768;2024-02-26T12:08:01;24.70;;;11.68;;
71150;SDS011;59071;42.138;24.768;2024-02-26T12:10:32;17.35;;;11.25;;
71150;SDS011;59071;42.138;24.768;2024-02-26T12:15:36;17.00;;;11.00;;
71150;SDS011;59071;42.138;24.768;2024-02-26T12:18:04;17.85;;;11.40;;
71150;SDS011;59071;42.138;24.768;2024-02-26T12:20:31;20.90;;;11.20;;
71150;SDS011;59071;42.138;24.768;2024-02-26T12:22:57;13.38;;;10.38;;
71150;SDS011;59071;42.138;24.768;2024-02-26T12:25:26;18.23;;;10.18;;
71150;SDS011;59071;42.138;24.768;2024-02-26T12:27:53;17.52;;;11.02;;
71150;SDS011;59071;42.138;24.768;2024-02-26T12:30:19;20.73;;;11.98;;
71150;SDS011;59071;42.138;24.768;2024-02-26T12:32:45;20.52;;;12.40;;
71150;SDS011;59071;42.138;24.768;2024-02-26T12:35:12;18.35;;;11.00;;
71150;SDS011;59071;42.138;24.768;2024-02-26T12:37:38;18.27;;;10.38;;
71150;SDS011;59071;42.138;24.768;2024-02-26T12:40:05;23.95;;;12.68;;
71150;SDS011;59071;42.138;24.768;2024-02-26T12:45:04;15.07;;;9.55;;
71150;SDS011;59071;42.138;24.768;2024-02-26T12:47:37;17.10;;;9.90;;
71150;SDS011;59071;42.138;24.768;2024-02-26T12:50:06;23.25;;;13.75;;
71150;SDS011;59071;42.138;24.768;2024-02-26T12:52:33;16.10;;;9.40;;
71150;SDS011;59071;42.138;24.768;2024-02-26T12:55:00;18.52;;;9.98;;
71150;SDS011;59071;42.138;24.768;2024-02-26T12:57:28;17.85;;;9.98;;
71150;SDS011;59071;42.138;24.768;2024-02-26T12:59:57;17.65;;;10.20;;
71150;SDS011;59071;42.138;24.768;2024-02-26T13:02:23;16.75;;;10.30;;
71150;SDS011;59071;42.138;24.768;2024-02-26T13:04:49;19.20;;;10.60;;
71150;SDS011;59071;42.138;24.768;2024-02-26T13:07:15;16.48;;;10.32;;
71150;SDS011;59071;42.138;24.768;2024-02-26T13:09:40;17.38;;;9.30;;
71150;SDS011;59071;42.138;24.768;2024-02-26T13:12:06;12.65;;;9.20;;
71150;SDS011;59071;42.138;24.768;2024-02-26T13:14:33;13.32;;;8.70;;
71150;SDS011;59071;42.138;24.768;2024-02-26T13:17:01;14.53;;;9.50;;
71150;SDS011;59071;42.138;24.768;2024-02-26T13:19:27;16.58;;;9.07;;
71150;SDS011;59071;42.138;24.768;2024-02-26T13:21:55;14.05;;;9.65;;
71150;SDS011;59071;42.138;24.768;2024-02-26T13:24:20;13.73;;;9.02;;
71150;SDS011;59071;42.138;24.768;2024-02-26T13:26:47;16.05;;;8.38;;
71150;SDS011;59071;42.138;24.768;2024-02-26T13:29:19;15.32;;;9.35;;
71150;SDS011;59071;42.138;24.768;2024-02-26T13:31:44;18.92;;;9.77;;
71150;SDS011;59071;42.138;24.768;2024-02-26T13:34:10;15.50;;;10.20;;
71150;SDS011;59071;42.138;24.768;2024-02-26T13:36:35;20.08;;;9.80;;
71150;SDS011;59071;42.138;24.768;2024-02-26T13:39:00;16.92;;;9.27;;
71150;SDS011;59071;42.138;24.768;2024-02-26T13:41:26;16.85;;;9.27;;
71150;SDS011;59071;42.138;24.768;2024-02-26T13:43:52;17.17;;;9.80;;
71150;SDS011;59071;42.138;24.768;2024-02-26T13:46:18;15.50;;;8.93;;
71150;SDS011;59071;42.138;24.768;2024-02-26T13:48:43;15.77;;;9.27;;
71150;SDS011;59071;42.138;24.768;2024-02-26T13:51:08;22.15;;;10.00;;
71150;SDS011;59071;42.138;24.768;2024-02-26T13:53:34;17.15;;;10.27;;
71150;SDS011;59071;42.138;24.768;2024-02-26T13:55:59;18.23;;;9.48;;
71150;SDS011;59071;42.138;24.768;2024-02-26T13:58:26;19.80;;;9.80;;
71150;SDS011;59071;42.138;24.768;2024-02-26T14:00:55;16.60;;;9.70;;
71150;SDS011;59071;42.138;24.768;2024-02-26T14:03:20;15.13;;;9.30;;
71150;SDS011;59071;42.138;24.768;2024-02-26T14:05:46;17.33;;;9.23;;
71150;SDS011;59071;42.138;24.768;2024-02-26T14:08:12;23.20;;;9.98;;
71150;SDS011;59071;42.138;24.768;2024-02-26T14:10:40;14.48;;;9.05;;
71150;SDS011;59071;42.138;24.768;2024-02-26T14:13:06;17.08;;;9.55;;
71150;SDS011;59071;42.138;24.768;2024-02-26T14:15:31;14.13;;;8.77;;
71150;SDS011;59071;42.138;24.768;2024-02-26T14:17:57;20.38;;;9.23;;